createdAt,value
2019-05-03T00:02:18.543Z,14.00
2019-05-03T00:04:48.809Z,14.00
2019-05-03T00:07:18.882Z,13.91
2019-05-03T00:09:47.384Z,13.89
2019-05-03T00:12:15.883Z,13.86
2019-05-03T00:14:46.130Z,13.82
2019-05-03T00:17:14.684Z,13.42
2019-05-03T00:19:43.161Z,13.52
2019-05-03T00:22:12.397Z,13.29
2019-05-03T00:24:42.694Z,12.79
2019-05-03T00:27:12.522Z,12.80
2019-05-03T00:29:41.775Z,12.96
2019-05-03T00:32:12.327Z,12.66
2019-05-03T00:34:48.174Z,12.62
2019-05-03T00:37:22.113Z,12.77
2019-05-03T00:40:07.681Z,12.83
2019-05-03T00:42:36.199Z,12.82
2019-05-03T00:45:07.955Z,12.77
2019-05-03T00:47:36.510Z,12.80
2019-05-03T00:50:06.369Z,12.70
2019-05-03T00:52:34.855Z,12.72
2019-05-03T00:55:15.502Z,12.73
2019-05-03T00:57:33.567Z,12.73
2019-05-03T01:00:02.444Z,12.62
2019-05-03T01:02:31.806Z,12.72
2019-05-03T01:05:02.604Z,12.62
2019-05-03T01:07:31.799Z,12.51
2019-05-03T01:10:02.722Z,12.28
2019-05-03T01:12:32.420Z,12.35
2019-05-03T01:15:02.761Z,12.36
2019-05-03T01:17:32.211Z,12.33
2019-05-03T01:20:02.781Z,12.45
2019-05-03T01:22:32.192Z,12.47
2019-05-03T01:25:02.873Z,12.50
2019-05-03T01:27:32.642Z,12.38
2019-05-03T01:30:02.813Z,12.27
2019-05-03T01:32:32.863Z,12.10
2019-05-03T01:35:03.208Z,12.17
2019-05-03T01:37:32.100Z,12.17
2019-05-03T01:40:02.260Z,12.19
2019-05-03T01:42:32.115Z,12.16
2019-05-03T01:45:01.810Z,12.04
2019-05-03T01:47:32.616Z,12.06
2019-05-03T01:50:02.939Z,11.86
2019-05-03T01:52:42.080Z,11.93
2019-05-03T01:55:15.758Z,11.87
2019-05-03T01:57:41.959Z,11.39
2019-05-03T02:00:14.397Z,11.15
2019-05-03T02:02:53.268Z,11.41
2019-05-03T02:05:38.411Z,11.34
2019-05-03T02:08:06.994Z,11.28
2019-05-03T02:10:35.488Z,11.31
2019-05-03T02:13:05.207Z,11.40
2019-05-03T02:15:33.713Z,11.46
2019-05-03T02:18:02.659Z,11.59
2019-05-03T02:20:32.418Z,11.42
2019-05-03T02:23:02.721Z,11.46
2019-05-03T02:25:32.336Z,11.41
2019-05-03T02:28:01.955Z,11.38
2019-05-03T02:30:33.179Z,11.51
2019-05-03T02:33:03.707Z,11.72
2019-05-03T02:35:33.284Z,11.68
2019-05-03T02:38:03.550Z,11.63
2019-05-03T02:40:33.805Z,11.68
2019-05-03T02:43:06.104Z,11.79
2019-05-03T02:45:52.976Z,11.81
2019-05-03T02:48:25.480Z,11.76
2019-05-03T02:50:56.047Z,11.81
2019-05-03T02:53:25.867Z,11.62
2019-05-03T02:55:56.105Z,11.67
2019-05-03T02:58:25.294Z,11.89
2019-05-03T03:01:02.630Z,11.98
2019-05-03T03:03:32.091Z,11.81
2019-05-03T03:06:02.473Z,11.77
2019-05-03T03:08:33.579Z,11.77
2019-05-03T03:11:09.992Z,11.63
2019-05-03T03:13:39.563Z,11.36
2019-05-03T03:16:10.286Z,10.91
2019-05-03T03:18:40.810Z,11.05
2019-05-03T03:21:15.730Z,11.18
2019-05-03T03:24:08.670Z,11.50
2019-05-03T03:26:42.736Z,11.77
2019-05-03T03:29:16.171Z,11.70
2019-05-03T03:31:57.701Z,11.86
2019-05-03T03:34:28.296Z,11.90
2019-05-03T03:37:04.501Z,11.81
2019-05-03T03:39:28.041Z,11.86
2019-05-03T03:41:57.297Z,11.94
2019-05-03T03:44:26.918Z,12.07
2019-05-03T03:46:57.815Z,12.07
2019-05-03T03:49:28.871Z,12.20
2019-05-03T03:52:00.065Z,12.32
2019-05-03T03:54:31.599Z,12.43
2019-05-03T03:57:06.871Z,12.54
2019-05-03T03:59:30.931Z,12.57
2019-05-03T04:01:59.592Z,12.71
2019-05-03T04:04:29.188Z,12.74
2019-05-03T04:07:01.266Z,12.68
2019-05-03T04:09:28.121Z,12.72
2019-05-03T04:11:57.135Z,12.07
2019-05-03T04:14:27.520Z,12.26
2019-05-03T04:17:07.181Z,12.72
2019-05-03T04:19:37.387Z,12.90
2019-05-03T04:22:06.157Z,12.93
2019-05-03T04:24:35.380Z,13.02
2019-05-03T04:27:15.507Z,13.19
2019-05-03T04:29:37.590Z,13.17
2019-05-03T04:32:08.277Z,13.10
2019-05-03T04:34:36.869Z,13.06
2019-05-03T04:37:05.792Z,13.21
2019-05-03T04:39:35.891Z,13.13
2019-05-03T04:42:06.769Z,13.07
2019-05-03T04:44:36.082Z,13.42
2019-05-03T04:47:06.824Z,13.72
2019-05-03T04:49:36.297Z,14.02
2019-05-03T04:52:05.795Z,14.32
2019-05-03T04:54:45.326Z,14.65
2019-05-03T04:57:17.615Z,14.94
2019-05-03T04:59:45.162Z,15.06
2019-05-03T05:02:15.956Z,15.23
2019-05-03T05:04:46.327Z,15.33
2019-05-03T05:07:15.498Z,15.10
2019-05-03T05:09:45.619Z,14.94
2019-05-03T05:12:16.126Z,15.10
2019-05-03T05:14:45.729Z,15.23
2019-05-03T05:17:16.546Z,15.34
2019-05-03T05:19:46.909Z,15.44
2019-05-03T05:22:25.710Z,15.36
2019-05-03T05:24:55.202Z,15.44
2019-05-03T05:27:25.749Z,15.78
2019-05-03T05:29:55.399Z,15.75
2019-05-03T05:32:24.782Z,15.91
2019-05-03T05:34:54.959Z,16.03
2019-05-03T05:37:25.026Z,15.97
2019-05-03T05:39:55.088Z,15.73
2019-05-03T05:42:25.099Z,15.75
2019-05-03T05:44:55.565Z,16.08
2019-05-03T05:47:34.507Z,16.01
2019-05-03T05:50:05.658Z,16.07
2019-05-03T05:52:34.687Z,15.32
2019-05-03T05:55:14.943Z,15.51
2019-05-03T05:57:45.144Z,14.86
2019-05-03T06:00:18.262Z,14.61
2019-05-03T06:02:46.753Z,15.04
2019-05-03T06:05:15.392Z,14.73
2019-05-03T06:07:48.225Z,14.47
2019-05-03T06:10:18.482Z,14.83
2019-05-03T06:12:54.606Z,14.83
2019-05-03T06:15:40.906Z,14.42
2019-05-03T06:18:14.654Z,13.56
2019-05-03T06:20:47.575Z,13.74
2019-05-03T06:23:17.715Z,13.56
2019-05-03T06:25:46.194Z,13.99
2019-05-03T06:28:20.665Z,13.37
2019-05-03T06:31:00.634Z,13.27
2019-05-03T06:33:29.125Z,13.33
2019-05-03T06:35:57.640Z,13.48
2019-05-03T06:38:26.129Z,13.93
2019-05-03T06:40:54.627Z,14.05
2019-05-03T06:43:24.450Z,13.16
2019-05-03T06:45:54.853Z,13.79
2019-05-03T06:48:28.205Z,13.83
2019-05-03T06:50:55.688Z,13.98
2019-05-03T06:53:25.433Z,14.43
2019-05-03T06:55:55.430Z,14.81
2019-05-03T06:58:32.885Z,14.89
2019-05-03T07:01:07.894Z,15.06
2019-05-03T07:03:40.747Z,15.37
2019-05-03T07:06:37.350Z,14.47
2019-05-03T07:09:05.333Z,14.91
2019-05-03T07:11:34.845Z,15.26
2019-05-03T07:14:05.239Z,15.17
2019-05-03T07:16:35.344Z,14.86
2019-05-03T07:19:04.435Z,15.41
2019-05-03T07:21:35.277Z,15.43
2019-05-03T07:24:05.298Z,15.60
2019-05-03T07:26:34.370Z,15.53
2019-05-03T07:29:04.825Z,15.72
2019-05-03T07:31:35.255Z,15.60
2019-05-03T07:34:05.203Z,15.46
2019-05-03T07:36:35.575Z,15.86
2019-05-03T07:39:07.374Z,16.04
2019-05-03T07:41:35.711Z,15.25
2019-05-03T07:44:05.411Z,15.36
2019-05-03T07:46:34.899Z,15.90
2019-05-03T07:49:05.030Z,16.25
2019-05-03T07:51:34.855Z,16.57
2019-05-03T07:54:04.733Z,16.97
2019-05-03T07:56:37.423Z,16.33
2019-05-03T07:59:07.310Z,16.50
2019-05-03T08:01:37.598Z,15.10
2019-05-03T08:04:06.424Z,15.53
2019-05-03T08:06:34.975Z,16.06
2019-05-03T08:09:05.885Z,16.42
2019-05-03T08:11:35.216Z,16.53
2019-05-03T08:14:05.812Z,17.09
2019-05-03T08:16:35.279Z,16.76
2019-05-03T08:19:05.362Z,16.69
2019-05-03T08:21:37.854Z,16.25
2019-05-03T08:24:05.199Z,16.09
2019-05-03T08:26:35.025Z,16.24
2019-05-03T08:29:15.650Z,16.03
2019-05-03T08:31:45.432Z,15.98
2019-05-03T08:34:18.895Z,16.66
2019-05-03T08:37:01.381Z,16.73
2019-05-03T08:39:29.867Z,16.95
2019-05-03T08:42:00.084Z,17.43
2019-05-03T08:44:28.907Z,17.86
2019-05-03T08:46:58.105Z,17.82
2019-05-03T08:49:26.932Z,18.01
2019-05-03T08:51:55.482Z,18.22
2019-05-03T08:54:25.557Z,17.99
2019-05-03T08:56:55.750Z,17.80
2019-05-03T08:59:29.874Z,17.31
2019-05-03T09:01:55.065Z,17.60
2019-05-03T09:04:36.012Z,17.53
2019-05-03T09:06:55.086Z,17.59
2019-05-03T09:09:25.644Z,17.83
2019-05-03T09:11:55.678Z,18.12
2019-05-03T09:14:24.562Z,18.33
2019-05-03T09:16:55.547Z,18.33
2019-05-03T09:19:25.278Z,17.93
2019-05-03T09:21:54.862Z,17.41
2019-05-03T09:24:24.581Z,16.84
2019-05-03T09:26:55.400Z,15.87
2019-05-03T09:29:25.410Z,15.34
2019-05-03T09:31:55.438Z,15.33
2019-05-03T09:34:25.703Z,14.85
2019-05-03T09:36:55.336Z,14.03
2019-05-03T09:39:24.514Z,13.50
2019-05-03T09:41:55.331Z,13.36
2019-05-03T09:44:24.474Z,13.25
2019-05-03T09:46:54.917Z,12.64
2019-05-03T09:49:25.326Z,13.01
2019-05-03T09:51:54.804Z,12.62
2019-05-03T09:54:25.598Z,12.41
2019-05-03T09:56:58.519Z,12.23
2019-05-03T09:59:28.669Z,12.18
2019-05-03T10:01:58.651Z,12.09
2019-05-03T10:04:27.254Z,12.17
2019-05-03T10:06:55.809Z,11.49
2019-05-03T10:09:26.452Z,11.45
2019-05-03T10:11:55.328Z,11.43
2019-05-03T10:14:24.054Z,11.20
2019-05-03T10:17:12.518Z,11.31
2019-05-03T10:19:41.046Z,11.58
2019-05-03T10:22:09.972Z,10.75
2019-05-03T10:24:38.502Z,10.60
2019-05-03T10:27:06.989Z,10.91
2019-05-03T10:29:35.583Z,10.89
2019-05-03T10:32:18.764Z,11.21
2019-05-03T10:34:57.882Z,10.84
2019-05-03T10:37:31.199Z,10.34
2019-05-03T10:40:07.460Z,10.37
2019-05-03T10:42:35.286Z,9.66
2019-05-03T10:45:06.269Z,9.46
2019-05-03T10:47:35.070Z,9.18
2019-05-03T10:50:05.148Z,8.89
2019-05-03T10:52:35.308Z,9.62
2019-05-03T10:55:05.355Z,9.50
2019-05-03T10:57:37.308Z,9.30
2019-05-03T11:00:39.399Z,9.65
2019-05-03T11:02:42.826Z,9.90
2019-05-03T11:05:11.446Z,9.97
2019-05-03T11:07:39.945Z,9.72
2019-05-03T11:10:08.899Z,10.66
2019-05-03T11:12:37.518Z,10.45
2019-05-03T11:15:07.646Z,10.63
2019-05-03T11:17:37.140Z,10.46
2019-05-03T11:20:06.081Z,9.79
2019-05-03T11:22:35.026Z,9.54
2019-05-03T11:25:05.155Z,9.92
2019-05-03T11:27:35.462Z,10.12
2019-05-03T11:30:09.180Z,10.37
2019-05-03T11:32:50.085Z,10.22
2019-05-03T11:35:20.886Z,10.00
2019-05-03T11:38:00.118Z,9.42
2019-05-03T11:40:28.635Z,10.13
2019-05-03T11:42:58.761Z,10.47
2019-05-03T11:45:27.278Z,11.14
2019-05-03T11:47:55.833Z,11.29
2019-05-03T11:50:25.306Z,11.38
2019-05-03T11:52:55.395Z,10.80
2019-05-03T11:55:26.606Z,10.68
2019-05-03T11:57:56.551Z,10.61
2019-05-03T12:00:26.829Z,11.25
2019-05-03T12:02:59.511Z,11.05
2019-05-03T12:05:29.498Z,10.68
2019-05-03T12:07:58.009Z,10.85
2019-05-03T12:10:45.735Z,10.83
2019-05-03T12:13:10.787Z,10.98
2019-05-03T12:15:39.309Z,10.71
2019-05-03T12:18:10.152Z,10.37
2019-05-03T12:20:40.331Z,9.86
2019-05-03T12:23:10.191Z,10.10
2019-05-03T12:25:42.539Z,10.17
2019-05-03T12:28:12.179Z,10.54
2019-05-03T12:30:41.153Z,10.57
2019-05-03T12:33:09.979Z,10.28
2019-05-03T12:35:40.613Z,10.22
2019-05-03T12:38:09.170Z,10.23
2019-05-03T12:40:39.186Z,10.24
2019-05-03T12:43:07.854Z,10.44
2019-05-03T12:45:36.366Z,10.42
2019-05-03T12:48:05.417Z,10.70
2019-05-03T12:50:35.025Z,10.85
2019-05-03T12:53:04.826Z,10.96
2019-05-03T12:55:35.556Z,10.81
2019-05-03T12:58:06.305Z,11.02
2019-05-03T13:00:39.805Z,10.82
2019-05-03T13:03:15.072Z,10.18
2019-05-03T13:05:44.899Z,10.41
2019-05-03T13:08:35.038Z,10.37
2019-05-03T13:11:05.224Z,10.64
2019-05-03T13:13:35.799Z,10.70
2019-05-03T13:16:06.019Z,10.47
2019-05-03T13:18:35.284Z,11.00
2019-05-03T13:21:05.970Z,11.21
2019-05-03T13:23:35.563Z,10.86
2019-05-03T13:26:05.940Z,11.22
2019-05-03T13:28:35.049Z,11.01
2019-05-03T13:31:05.761Z,10.81
2019-05-03T13:33:34.840Z,11.15
2019-05-03T13:36:03.714Z,10.93
2019-05-03T13:38:32.274Z,11.04
2019-05-03T13:41:00.773Z,11.33
2019-05-03T13:43:29.294Z,10.50
2019-05-03T13:45:57.855Z,11.08
2019-05-03T13:48:26.638Z,11.51
2019-05-03T13:50:55.326Z,11.55
2019-05-03T13:53:25.401Z,11.66
2019-05-03T13:55:55.257Z,11.66
2019-05-03T13:58:26.223Z,11.69
2019-05-03T14:00:54.901Z,12.00
2019-05-03T14:03:23.713Z,12.18
2019-05-03T14:05:52.291Z,12.46
2019-05-03T14:08:20.773Z,12.41
2019-05-03T14:10:49.287Z,12.31
2019-05-03T14:13:17.783Z,12.39
2019-05-03T14:15:46.449Z,12.39
2019-05-03T14:18:15.579Z,12.28
2019-05-03T14:20:45.874Z,12.66
2019-05-03T14:23:14.911Z,12.35
2019-05-03T14:25:44.671Z,12.42
2019-05-03T14:28:14.567Z,12.35
2019-05-03T14:30:45.434Z,12.21
2019-05-03T14:33:14.072Z,12.37
2019-05-03T14:35:42.580Z,12.41
2019-05-03T14:38:11.096Z,12.57
2019-05-03T14:40:39.604Z,12.59
2019-05-03T14:43:08.174Z,12.68
2019-05-03T14:45:36.770Z,12.37
2019-05-03T14:48:06.153Z,12.29
2019-05-03T14:50:35.215Z,12.03
2019-05-03T14:53:05.604Z,11.59
2019-05-03T14:55:41.371Z,12.06
2019-05-03T14:58:17.548Z,12.16
2019-05-03T15:00:47.968Z,12.37
2019-05-03T15:03:24.657Z,12.33
2019-05-03T15:05:55.123Z,11.91
2019-05-03T15:08:25.516Z,12.08
2019-05-03T15:10:54.683Z,12.32
2019-05-03T15:13:25.136Z,12.37
2019-05-03T15:15:54.751Z,12.44
2019-05-03T15:18:25.388Z,12.39
2019-05-03T15:20:54.978Z,12.50
2019-05-03T15:23:25.404Z,12.26
2019-05-03T15:25:54.645Z,12.50
2019-05-03T15:28:25.065Z,12.60
2019-05-03T15:30:55.379Z,12.36
2019-05-03T15:33:23.742Z,12.04
2019-05-03T15:35:52.250Z,11.76
2019-05-03T15:38:20.745Z,11.46
2019-05-03T15:40:49.340Z,11.46
2019-05-03T15:43:19.476Z,11.34
2019-05-03T15:45:54.406Z,11.19
2019-05-03T15:48:24.628Z,11.17
2019-05-03T15:50:55.180Z,11.25
2019-05-03T15:53:24.698Z,11.21
2019-05-03T15:55:55.061Z,11.54
2019-05-03T15:58:24.814Z,11.40
2019-05-03T16:00:55.397Z,11.40
2019-05-03T16:03:25.246Z,11.67
2019-05-03T16:05:55.651Z,11.54
2019-05-03T16:08:24.839Z,11.50
2019-05-03T16:10:54.907Z,11.89
2019-05-03T16:13:25.261Z,12.32
2019-05-03T16:15:55.277Z,12.26
2019-05-03T16:18:24.548Z,12.22
2019-05-03T16:20:54.593Z,11.45
2019-05-03T16:23:25.039Z,11.45
2019-05-03T16:25:54.392Z,11.69
2019-05-03T16:28:33.735Z,11.56
2019-05-03T16:31:05.121Z,11.62
2019-05-03T16:33:34.961Z,11.35
2019-05-03T16:36:05.375Z,11.10
2019-05-03T16:38:35.436Z,11.28
2019-05-03T16:41:05.197Z,11.54
2019-05-03T16:43:34.800Z,11.50
2019-05-03T16:46:05.496Z,11.70
2019-05-03T16:48:35.346Z,12.21
2019-05-03T16:51:05.042Z,12.33
2019-05-03T16:53:35.038Z,12.35
2019-05-03T16:56:03.715Z,12.08
2019-05-03T16:58:32.186Z,11.79
2019-05-03T17:01:00.746Z,11.75
2019-05-03T17:03:38.689Z,12.07
2019-05-03T17:06:08.258Z,11.99
2019-05-03T17:08:56.794Z,12.25
2019-05-03T17:11:25.956Z,11.92
2019-05-03T17:13:55.392Z,11.22
2019-05-03T17:16:24.944Z,11.25
2019-05-03T17:18:55.178Z,11.50
2019-05-03T17:21:25.469Z,11.99
2019-05-03T17:23:54.294Z,12.18
2019-05-03T17:26:24.867Z,12.28
2019-05-03T17:28:55.227Z,12.41
2019-05-03T17:31:24.395Z,12.38
2019-05-03T17:33:56.187Z,12.50
2019-05-03T17:36:24.921Z,12.60
2019-05-03T17:38:55.265Z,12.18
2019-05-03T17:41:25.982Z,12.31
2019-05-03T17:43:58.567Z,12.30
2019-05-03T17:46:27.109Z,12.00
2019-05-03T17:48:55.637Z,11.55
2019-05-03T17:51:40.853Z,11.67
2019-05-03T17:54:11.024Z,11.76
2019-05-03T17:56:44.489Z,11.83
2019-05-03T17:59:15.217Z,11.84
2019-05-03T18:02:04.192Z,11.83
2019-05-03T18:04:45.955Z,11.71
2019-05-03T18:07:16.343Z,11.94
2019-05-03T18:09:46.467Z,12.12
2019-05-03T18:12:15.151Z,12.26
2019-05-03T18:14:44.994Z,12.27
2019-05-03T18:17:14.792Z,12.04
2019-05-03T18:19:44.846Z,11.92
2019-05-03T18:22:15.278Z,11.84
2019-05-03T18:24:45.507Z,11.92
2019-05-03T18:27:15.010Z,11.72
2019-05-03T18:29:44.941Z,11.53
2019-05-03T18:32:14.698Z,11.56
2019-05-03T18:34:45.196Z,11.80
2019-05-03T18:37:15.257Z,11.90
2019-05-03T18:39:45.265Z,12.06
2019-05-03T18:42:15.500Z,12.07
2019-05-03T18:44:45.627Z,11.88
2019-05-03T18:47:15.906Z,11.60
2019-05-03T18:49:44.824Z,11.77
2019-05-03T18:52:14.918Z,11.61
2019-05-03T18:54:44.489Z,11.59
2019-05-03T18:57:13.229Z,11.67
2019-05-03T18:59:41.721Z,11.84
2019-05-03T19:02:10.346Z,11.89
2019-05-03T19:04:45.201Z,11.95
2019-05-03T19:07:21.851Z,11.80
2019-05-03T19:09:51.997Z,11.65
2019-05-03T19:12:35.679Z,11.63
2019-05-03T19:15:08.584Z,11.61
2019-05-03T19:17:41.422Z,11.59
2019-05-03T19:20:11.723Z,11.73
2019-05-03T19:22:40.516Z,11.90
2019-05-03T19:25:09.265Z,11.87
2019-05-03T19:27:39.139Z,11.86
2019-05-03T19:30:08.515Z,11.62
2019-05-03T19:32:37.015Z,11.71
2019-05-03T19:35:08.143Z,11.71
2019-05-03T19:37:36.643Z,11.47
2019-05-03T19:40:07.082Z,11.63
2019-05-03T19:42:35.715Z,11.03
2019-05-03T19:45:05.351Z,10.83
2019-05-03T19:47:35.355Z,10.56
2019-05-03T19:50:06.499Z,10.93
2019-05-03T19:52:54.564Z,11.13
2019-05-03T19:55:23.121Z,10.93
2019-05-03T19:57:51.617Z,10.59
2019-05-03T20:00:20.418Z,10.50
2019-05-03T20:02:50.590Z,10.40
2019-05-03T20:05:29.532Z,10.51
2019-05-03T20:08:00.257Z,10.70
2019-05-03T20:10:29.824Z,10.69
2019-05-03T20:12:59.858Z,10.98
2019-05-03T20:15:28.355Z,10.97
2019-05-03T20:18:00.182Z,10.87
2019-05-03T20:20:27.083Z,11.01
2019-05-03T20:22:55.681Z,11.15
2019-05-03T20:25:24.453Z,11.05
2019-05-03T20:27:52.994Z,10.91
2019-05-03T20:30:21.591Z,10.95
2019-05-03T20:32:50.210Z,11.22
2019-05-03T20:35:19.585Z,11.33
2019-05-03T20:37:48.276Z,11.33
2019-05-03T20:40:17.474Z,11.24
2019-05-03T20:42:47.615Z,11.28
2019-05-03T20:45:18.220Z,11.36
2019-05-03T20:47:54.814Z,11.20
2019-05-03T20:50:24.779Z,11.13
2019-05-03T20:52:54.960Z,11.23
2019-05-03T20:55:25.507Z,11.12
2019-05-03T20:57:54.937Z,11.04
2019-05-03T21:00:25.738Z,11.04
2019-05-03T21:02:57.160Z,10.68
2019-05-03T21:05:30.686Z,10.76
2019-05-03T21:07:55.142Z,10.65
2019-05-03T21:10:23.609Z,10.54
2019-05-03T21:12:54.280Z,10.36
2019-05-03T21:15:30.326Z,10.31
2019-05-03T21:18:12.356Z,10.40
2019-05-03T21:20:45.257Z,10.37
2019-05-03T21:23:21.713Z,10.28
2019-05-03T21:26:12.531Z,10.41
2019-05-03T21:28:34.521Z,10.40
2019-05-03T21:31:05.413Z,10.28
2019-05-03T21:33:35.356Z,10.32
2019-05-03T21:36:04.648Z,10.30
2019-05-03T21:38:35.321Z,10.34
2019-05-03T21:41:05.151Z,10.34
2019-05-03T21:43:34.840Z,10.35
2019-05-03T21:46:11.382Z,10.36
2019-05-03T21:48:59.615Z,10.31
2019-05-03T21:51:28.134Z,10.18
2019-05-03T21:53:56.617Z,9.99
2019-05-03T21:56:25.150Z,9.72
2019-05-03T21:58:55.335Z,9.77
2019-05-03T22:01:25.961Z,9.93
2019-05-03T22:03:54.405Z,9.87
2019-05-03T22:06:24.636Z,9.85
2019-05-03T22:08:55.282Z,9.68
2019-05-03T22:11:25.212Z,9.50
2019-05-03T22:13:57.061Z,9.42
2019-05-03T22:16:30.371Z,9.23
2019-05-03T22:18:58.892Z,9.21
2019-05-03T22:21:47.048Z,9.20
2019-05-03T22:24:17.717Z,9.13
2019-05-03T22:27:01.141Z,8.89
2019-05-03T22:29:35.581Z,9.03
2019-05-03T22:32:05.429Z,9.03
2019-05-03T22:34:34.912Z,8.64
2019-05-03T22:37:03.650Z,8.57
2019-05-03T22:39:32.141Z,8.71
2019-05-03T22:42:02.013Z,8.59
2019-05-03T22:44:30.547Z,8.96
2019-05-03T22:46:59.041Z,9.08
2019-05-03T22:49:27.565Z,9.04
2019-05-03T22:51:56.124Z,9.14
2019-05-03T22:54:24.820Z,9.20
2019-05-03T22:56:55.480Z,9.32
2019-05-03T22:59:25.218Z,9.29
2019-05-03T23:01:54.629Z,9.21
2019-05-03T23:04:25.283Z,9.02
2019-05-03T23:06:55.593Z,9.20
2019-05-03T23:09:24.882Z,9.32
2019-05-03T23:11:55.245Z,9.44
2019-05-03T23:14:25.441Z,9.48
2019-05-03T23:16:54.287Z,9.70
2019-05-03T23:19:22.753Z,9.90
2019-05-03T23:21:54.460Z,9.84
2019-05-03T23:24:24.694Z,9.65
2019-05-03T23:26:53.388Z,9.19
2019-05-03T23:29:21.876Z,9.49
2019-05-03T23:31:50.375Z,9.99
2019-05-03T23:34:18.903Z,10.15
2019-05-03T23:36:47.420Z,10.36
2019-05-03T23:39:15.930Z,10.17
2019-05-03T23:41:44.405Z,10.14
2019-05-03T23:44:15.041Z,10.00
2019-05-03T23:46:45.488Z,10.21
2019-05-03T23:49:24.908Z,10.23
2019-05-03T23:51:55.063Z,10.17
2019-05-03T23:54:24.669Z,10.16
2019-05-03T23:56:54.797Z,10.17
2019-05-03T23:59:23.415Z,10.32
